Time;durP1;ratioP1;P1;durP2;ratioP2;P2;SDS_P1;SDS_P2;PMS_P1;PMS_P2;Temp;Humidity;BMP_temperature;BMP_pressure;BME280_temperature;BME280_humidity;BME280_pressure;Samples;Min_cycle;Max_cycle;Signal;HPM_P1;HPM_P2
2021/06/10 00:00:52;;;;;;;10.00;9.10;;;18.60;99.90;;;;;;10406787;28;20277;-80
2021/06/10 00:05:54;;;;;;;9.53;8.83;;;18.60;99.90;;;;;;10402061;28;20285;-80
2021/06/10 00:10:57;;;;;;;9.50;8.80;;;18.60;99.90;;;;;;10397512;28;20222;-80
2021/06/10 00:16:00;;;;;;;9.97;9.20;;;18.50;99.90;;;;;;10398907;28;20235;-79
2021/06/10 00:21:01;;;;;;;9.50;8.70;;;18.40;99.90;;;;;;10414190;28;20304;-80
2021/06/10 00:26:03;;;;;;;9.70;8.90;;;18.40;99.90;;;;;;10385131;28;20204;-80
2021/06/10 00:31:06;;;;;;;9.50;8.80;;;18.30;99.90;;;;;;10394436;28;20234;-80
2021/06/10 00:36:08;;;;;;;9.80;9.07;;;18.30;99.90;;;;;;10402070;28;20209;-80
2021/06/10 00:41:09;;;;;;;9.37;8.67;;;18.30;99.90;;;;;;10381486;28;20227;-80
2021/06/10 00:46:12;;;;;;;10.57;9.77;;;18.20;99.90;;;;;;10406799;28;20194;-79
2021/06/10 00:51:14;;;;;;;11.83;10.37;;;18.20;99.90;;;;;;10377900;28;20232;-79
2021/06/10 00:56:15;;;;;;;10.17;9.47;;;18.20;99.90;;;;;;10367068;28;20304;-79
2021/06/10 01:01:18;;;;;;;10.23;9.43;;;18.10;99.90;;;;;;10393030;28;20228;-80
2021/06/10 01:06:27;;;;;;;9.70;8.97;;;18.20;99.90;;;;;;10401499;28;20711;-79
2021/06/10 01:11:39;;;;;;;9.47;8.47;;;18.20;99.90;;;;;;10398566;28;20276;-79
2021/06/10 01:16:46;;;;;;;9.50;8.70;;;18.20;99.90;;;;;;10407510;28;20209;-80
2021/06/10 01:21:50;;;;;;;10.13;9.23;;;18.20;99.90;;;;;;10372647;28;20215;-80
2021/06/10 01:26:59;;;;;;;9.03;8.33;;;18.20;99.90;;;;;;10375987;28;20198;-80
2021/06/10 01:32:02;;;;;;;9.80;9.10;;;18.10;99.90;;;;;;10375451;28;20226;-79
2021/06/10 01:37:05;;;;;;;10.00;9.30;;;18.10;99.90;;;;;;10405904;28;20308;-80
2021/06/10 01:42:11;;;;;;;9.93;9.03;;;18.00;99.90;;;;;;10382296;28;20257;-78
2021/06/10 01:47:15;;;;;;;10.60;9.77;;;18.00;99.90;;;;;;10384220;28;20294;-80
2021/06/10 01:52:18;;;;;;;10.77;9.97;;;17.90;99.90;;;;;;10380960;28;20288;-79
2021/06/10 01:57:21;;;;;;;10.00;9.30;;;17.90;99.90;;;;;;10398619;28;20214;-79
2021/06/10 02:02:24;;;;;;;10.30;9.60;;;17.90;99.90;;;;;;10392208;28;20231;-79
2021/06/10 02:07:26;;;;;;;11.17;9.80;;;17.90;99.90;;;;;;10392938;28;20252;-79
2021/06/10 02:12:28;;;;;;;11.30;10.17;;;17.90;99.90;;;;;;10381572;28;20352;-80
2021/06/10 02:17:31;;;;;;;10.33;9.53;;;17.90;99.90;;;;;;10393844;28;20217;-80
2021/06/10 02:22:33;;;;;;;11.07;10.27;;;17.90;99.90;;;;;;10400268;28;20245;-81
2021/06/10 02:27:35;;;;;;;11.33;10.43;;;17.80;99.90;;;;;;10395558;28;20284;-79
2021/06/10 02:32:38;;;;;;;10.40;9.60;;;17.80;99.90;;;;;;10366453;28;20638;-78
2021/06/10 02:37:44;;;;;;;10.40;9.67;;;17.80;99.90;;;;;;10399517;28;20314;-79
2021/06/10 02:42:47;;;;;;;10.80;10.07;;;17.70;99.90;;;;;;10369774;28;20253;-79
2021/06/10 02:47:52;;;;;;;11.63;10.83;;;17.70;99.90;;;;;;10398791;28;20224;-79
2021/06/10 02:52:55;;;;;;;11.23;10.33;;;17.70;99.90;;;;;;10377595;28;20280;-78
2021/06/10 02:57:58;;;;;;;10.93;10.10;;;17.70;99.90;;;;;;10367237;28;20257;-78
2021/06/10 03:03:02;;;;;;;11.50;10.60;;;17.70;99.90;;;;;;10395597;28;20222;-78
2021/06/10 03:08:05;;;;;;;12.23;11.30;;;17.60;99.90;;;;;;10407379;28;20197;-78
2021/06/10 03:13:07;;;;;;;10.60;9.90;;;17.60;99.90;;;;;;10397106;28;20245;-77
2021/06/10 03:18:10;;;;;;;11.40;10.50;;;17.60;99.90;;;;;;10357128;28;20697;-78
2021/06/10 03:23:13;;;;;;;11.40;10.60;;;17.60;99.90;;;;;;10392304;28;20470;-78
2021/06/10 03:28:15;;;;;;;12.83;11.93;;;17.60;99.90;;;;;;10397297;28;20194;-78
2021/06/10 03:33:18;;;;;;;12.20;11.20;;;17.60;99.90;;;;;;10379856;28;20690;-77
2021/06/10 03:38:22;;;;;;;12.00;11.10;;;17.60;99.90;;;;;;10379511;28;20224;-77
2021/06/10 03:43:24;;;;;;;11.50;10.60;;;17.60;99.90;;;;;;10375935;28;20689;-79
2021/06/10 03:48:27;;;;;;;12.83;11.63;;;17.60;99.90;;;;;;10396949;28;20210;-78
2021/06/10 03:53:29;;;;;;;13.07;11.93;;;17.60;99.90;;;;;;10379241;28;20237;-78
2021/06/10 03:58:31;;;;;;;13.20;12.20;;;17.60;99.90;;;;;;10371501;28;20222;-78
2021/06/10 04:03:34;;;;;;;13.80;12.70;;;17.60;99.90;;;;;;10393639;28;20330;-77
2021/06/10 04:08:35;;;;;;;12.30;11.40;;;17.70;99.90;;;;;;10385757;28;20201;-79
2021/06/10 04:13:37;;;;;;;12.77;11.83;;;17.70;99.90;;;;;;10402915;28;20217;-78
2021/06/10 04:18:40;;;;;;;12.60;11.70;;;17.70;99.90;;;;;;10384676;28;20214;-78
2021/06/10 04:23:42;;;;;;;11.60;10.70;;;17.70;99.90;;;;;;10391477;28;20226;-78
2021/06/10 04:28:45;;;;;;;13.03;12.03;;;17.70;99.90;;;;;;10382724;28;20222;-78
2021/06/10 04:33:49;;;;;;;12.80;11.80;;;17.80;99.90;;;;;;10401491;28;20587;-77
2021/06/10 04:38:51;;;;;;;12.40;11.40;;;17.80;99.90;;;;;;10400589;28;20218;-79
2021/06/10 04:43:52;;;;;;;12.87;11.97;;;17.90;99.90;;;;;;10410708;28;20712;-78
2021/06/10 04:48:56;;;;;;;12.07;11.17;;;17.90;99.90;;;;;;10381672;28;20303;-78
2021/06/10 04:53:58;;;;;;;12.20;11.10;;;18.00;99.90;;;;;;10391964;28;20207;-79
2021/06/10 04:58:59;;;;;;;11.87;10.97;;;18.10;99.90;;;;;;10415037;28;20379;-79
2021/06/10 05:04:03;;;;;;;12.60;11.60;;;18.20;99.90;;;;;;10401294;28;20202;-79
2021/06/10 05:09:05;;;;;;;12.33;11.43;;;18.20;99.90;;;;;;10398286;28;20304;-79
2021/06/10 05:14:06;;;;;;;11.60;10.60;;;18.30;99.90;;;;;;10409262;28;20225;-79
2021/06/10 05:19:09;;;;;;;11.90;11.00;;;18.30;99.90;;;;;;10422349;28;20229;-79
2021/06/10 05:24:13;;;;;;;12.90;11.90;;;18.40;99.90;;;;;;10392705;28;20286;-79
2021/06/10 05:29:17;;;;;;;12.80;11.70;;;18.50;99.90;;;;;;10399264;28;20211;-79
2021/06/10 05:34:20;;;;;;;12.40;11.50;;;18.60;99.90;;;;;;10397187;28;20276;-79
2021/06/10 05:39:21;;;;;;;11.03;10.23;;;18.70;99.90;;;;;;10417650;28;20276;-79
2021/06/10 05:44:23;;;;;;;12.33;11.43;;;18.70;99.90;;;;;;10419187;28;20629;-79
2021/06/10 05:49:26;;;;;;;13.33;12.20;;;18.80;99.90;;;;;;10426564;28;20249;-79
2021/06/10 05:54:28;;;;;;;12.60;11.50;;;18.90;99.90;;;;;;10419593;28;20277;-79
2021/06/10 05:59:30;;;;;;;14.37;13.17;;;19.00;99.90;;;;;;10414149;28;20232;-79
2021/06/10 06:04:32;;;;;;;12.97;11.77;;;19.10;99.90;;;;;;10395831;28;20229;-79
2021/06/10 06:09:35;;;;;;;12.23;11.13;;;19.20;99.90;;;;;;10401594;28;20245;-79
2021/06/10 06:14:38;;;;;;;12.77;11.73;;;19.20;99.90;;;;;;10422311;28;20216;-78
2021/06/10 06:19:41;;;;;;;13.23;12.10;;;19.40;99.90;;;;;;10413407;28;20229;-79
2021/06/10 06:24:43;;;;;;;11.80;11.00;;;19.50;99.90;;;;;;10402923;28;20274;-79
2021/06/10 06:29:44;;;;;;;12.60;11.60;;;19.60;99.90;;;;;;10400357;28;20260;-79
2021/06/10 06:34:47;;;;;;;11.53;10.63;;;19.80;99.90;;;;;;10413074;28;20232;-79
2021/06/10 06:39:49;;;;;;;11.67;10.77;;;20.00;99.90;;;;;;10396923;28;20741;-79
2021/06/10 06:44:51;;;;;;;12.13;11.23;;;20.20;99.90;;;;;;10419691;28;20217;-79
2021/06/10 06:49:54;;;;;;;11.50;10.50;;;20.50;99.90;;;;;;10395944;28;20238;-79
2021/06/10 06:54:55;;;;;;;13.87;12.70;;;20.80;99.90;;;;;;10388928;28;20194;-79
2021/06/10 06:59:57;;;;;;;11.83;10.73;;;21.00;99.90;;;;;;10407532;28;20264;-79
2021/06/10 07:05:00;;;;;;;10.77;9.83;;;21.30;99.90;;;;;;10418415;28;20574;-79
2021/06/10 07:10:03;;;;;;;10.00;9.17;;;21.60;99.90;;;;;;10401347;28;20245;-79
2021/06/10 07:15:06;;;;;;;9.67;8.97;;;21.90;99.90;;;;;;10419195;28;20237;-79
2021/06/10 07:20:10;;;;;;;9.83;9.13;;;22.30;99.90;;;;;;10418799;28;20222;-79
2021/06/10 07:25:15;;;;;;;11.30;10.40;;;22.70;99.90;;;;;;10419891;28;20658;-79
2021/06/10 07:30:21;;;;;;;11.27;10.30;;;23.10;99.90;;;;;;10413986;28;20213;-79
2021/06/10 07:35:24;;;;;;;10.37;9.40;;;23.40;99.90;;;;;;10400831;28;20283;-79
2021/06/10 07:40:26;;;;;;;9.17;8.50;;;23.80;99.90;;;;;;10401261;28;20225;-79
2021/06/10 07:45:29;;;;;;;9.83;9.03;;;24.20;99.90;;;;;;10419614;28;20251;-79
2021/06/10 07:50:32;;;;;;;10.43;9.63;;;24.60;99.90;;;;;;10413640;28;20249;-80
2021/06/10 07:55:34;;;;;;;9.17;8.47;;;25.10;99.90;;;;;;10414610;28;20213;-79
2021/06/10 08:00:36;;;;;;;10.30;9.40;;;25.70;99.90;;;;;;10417739;28;20249;-79
2021/06/10 08:05:39;;;;;;;8.73;8.03;;;25.90;99.90;;;;;;10422485;28;20224;-79
2021/06/10 08:10:41;;;;;;;10.97;10.07;;;26.00;99.90;;;;;;10393011;28;20249;-79
2021/06/10 08:15:42;;;;;;;10.30;9.40;;;26.40;99.90;;;;;;10421936;28;20376;-79
2021/06/10 08:20:46;;;;;;;8.70;8.00;;;26.90;99.90;;;;;;10423174;28;20225;-79
2021/06/10 08:25:48;;;;;;;8.37;7.67;;;27.40;99.90;;;;;;10421569;28;20225;-80
2021/06/10 08:30:50;;;;;;;10.60;9.80;;;27.80;97.70;;;;;;10418544;28;20245;-80
2021/06/10 08:35:56;;;;;;;10.10;9.20;;;28.20;97.00;;;;;;10403623;28;20288;-80
2021/06/10 08:41:02;;;;;;;9.30;8.60;;;28.40;96.10;;;;;;10421843;28;20226;-80
2021/06/10 08:46:08;;;;;;;10.00;9.20;;;28.70;95.70;;;;;;10420568;28;20206;-80
2021/06/10 08:51:17;;;;;;;10.37;9.60;;;29.00;94.20;;;;;;10421046;28;20608;-80
2021/06/10 08:56:19;;;;;;;11.57;10.40;;;29.20;93.40;;;;;;10386505;28;20205;-80
2021/06/10 09:01:23;;;;;;;10.53;9.73;;;29.30;91.50;;;;;;10414047;28;20237;-80
2021/06/10 09:06:26;;;;;;;10.00;9.20;;;29.50;92.60;;;;;;10421407;28;20198;-80
2021/06/10 09:11:27;;;;;;;11.00;10.00;;;29.70;90.40;;;;;;10421114;28;20590;-80
2021/06/10 09:16:32;;;;;;;10.40;9.50;;;29.90;88.00;;;;;;10394907;28;20682;-79
2021/06/10 09:21:38;;;;;;;8.60;7.97;;;30.10;88.50;;;;;;10418726;28;20226;-80
2021/06/10 09:26:40;;;;;;;9.80;9.00;;;30.40;90.00;;;;;;10416392;28;20237;-79
2021/06/10 09:31:44;;;;;;;9.77;9.03;;;30.80;86.20;;;;;;10385397;28;20222;-80
2021/06/10 09:36:49;;;;;;;9.73;8.93;;;31.20;81.30;;;;;;10417320;28;20213;-80
2021/06/10 09:41:59;;;;;;;9.10;8.50;;;31.70;83.80;;;;;;10417681;28;20722;-80
2021/06/10 09:47:05;;;;;;;8.77;8.17;;;32.10;80.00;;;;;;10400353;28;20287;-80
2021/06/10 09:52:08;;;;;;;10.30;9.60;;;33.00;76.50;;;;;;10416576;28;20608;-80
2021/06/10 09:57:12;;;;;;;10.03;9.13;;;34.20;72.30;;;;;;10402366;28;20741;-81
2021/06/10 10:02:21;;;;;;;10.90;10.17;;;35.50;68.70;;;;;;10417795;28;20724;-80
2021/06/10 10:07:26;;;;;;;10.53;9.73;;;36.60;62.90;;;;;;10397374;28;20285;-79
2021/06/10 10:12:32;;;;;;;8.73;8.13;;;37.30;59.00;;;;;;10414334;28;20225;-80
2021/06/10 10:17:35;;;;;;;9.07;8.47;;;37.90;58.50;;;;;;10415126;28;20217;-80
2021/06/10 10:22:39;;;;;;;12.13;11.23;;;38.40;57.30;;;;;;10409037;28;20224;-80
2021/06/10 10:27:41;;;;;;;11.00;10.10;;;37.10;54.50;;;;;;10394693;28;20233;-80
2021/06/10 10:32:44;;;;;;;11.90;11.00;;;34.80;56.90;;;;;;10396871;28;20689;-79
2021/06/10 10:37:47;;;;;;;12.20;11.30;;;33.00;61.20;;;;;;10390815;28;20701;-80
2021/06/10 10:42:51;;;;;;;12.53;11.57;;;31.50;65.50;;;;;;10412007;28;20706;-80
2021/06/10 10:48:01;;;;;;;13.70;12.70;;;30.30;68.00;;;;;;10414207;28;20201;-79
2021/06/10 10:53:08;;;;;;;11.77;10.93;;;29.40;69.80;;;;;;10409207;28;20238;-79
2021/06/10 10:58:17;;;;;;;13.20;12.20;;;28.70;72.30;;;;;;10379592;28;20313;-79
2021/06/10 11:03:28;;;;;;;13.07;11.97;;;28.20;75.90;;;;;;10389943;28;20230;-80
2021/06/10 11:09:04;;;;;;;12.80;11.63;;;27.70;79.20;;;;;;10395097;28;20202;-80
2021/06/10 11:14:41;;;;;;;16.30;15.00;;;27.30;83.70;;;;;;10387736;28;20210;-80
2021/06/10 11:20:06;;;;;;;15.43;14.03;;;26.90;80.60;;;;;;10407476;28;20256;-81
2021/06/10 11:25:11;;;;;;;16.00;14.50;;;26.60;84.30;;;;;;10382307;28;20293;-80
2021/06/10 11:30:25;;;;;;;13.87;12.77;;;26.50;90.10;;;;;;10395151;28;20225;-80
2021/06/10 11:35:33;;;;;;;16.07;14.87;;;26.40;86.90;;;;;;10393613;28;20229;-80
2021/06/10 11:40:36;;;;;;;14.13;13.03;;;26.40;88.00;;;;;;10415148;28;20226;-80
2021/06/10 11:45:38;;;;;;;14.07;12.80;;;26.30;84.30;;;;;;10392977;28;20692;-80
2021/06/10 11:50:42;;;;;;;11.93;11.03;;;26.30;86.20;;;;;;10392466;28;20225;-79
2021/06/10 11:55:47;;;;;;;13.97;12.63;;;26.20;82.10;;;;;;10409148;28;20197;-79
2021/06/10 12:00:48;;;;;;;14.80;13.60;;;26.40;87.80;;;;;;10387257;28;20227;-80
2021/06/10 12:05:52;;;;;;;14.87;13.73;;;26.50;85.50;;;;;;10401049;28;20202;-80
2021/06/10 12:10:58;;;;;;;15.67;14.40;;;26.40;79.80;;;;;;10417764;28;20607;-80
2021/06/10 12:16:01;;;;;;;15.63;14.33;;;26.40;81.30;;;;;;10404109;28;20218;-79
2021/06/10 12:21:08;;;;;;;13.90;12.63;;;26.50;84.00;;;;;;10401355;28;20229;-80
2021/06/10 12:26:14;;;;;;;13.37;12.40;;;26.60;81.40;;;;;;10388471;28;20198;-80
2021/06/10 12:31:18;;;;;;;12.50;11.50;;;26.80;81.70;;;;;;10382449;28;20211;-80
2021/06/10 12:36:23;;;;;;;13.30;12.30;;;26.70;78.90;;;;;;10387186;28;20201;-79
2021/06/10 12:41:28;;;;;;;11.43;10.53;;;26.60;80.20;;;;;;10406122;28;20300;-78
2021/06/10 12:46:31;;;;;;;12.03;11.13;;;26.50;81.30;;;;;;10406191;28;20225;-78
2021/06/10 12:51:33;;;;;;;11.10;10.20;;;26.40;84.30;;;;;;10409961;28;20249;-78
2021/06/10 12:56:46;;;;;;;9.90;9.20;;;26.30;85.00;;;;;;10406220;28;20285;-78
2021/06/10 13:02:06;;;;;;;8.00;7.50;;;26.40;81.40;;;;;;10390417;28;20218;-79
2021/06/10 13:07:10;;;;;;;12.03;9.90;;;26.70;80.10;;;;;;10403897;28;20288;-78
2021/06/10 13:12:19;;;;;;;11.10;10.20;;;26.90;81.20;;;;;;10404674;28;20218;-79
2021/06/10 13:17:21;;;;;;;11.10;10.20;;;27.20;81.50;;;;;;10395309;28;20698;-78
2021/06/10 13:22:23;;;;;;;9.07;8.27;;;27.20;81.40;;;;;;10404467;28;20719;-78
2021/06/10 13:27:26;;;;;;;9.87;9.17;;;27.20;80.80;;;;;;10401822;28;20377;-79
2021/06/10 13:32:30;;;;;;;9.00;8.40;;;27.20;76.70;;;;;;10415173;28;20304;-79
2021/06/10 13:37:32;;;;;;;8.23;7.73;;;27.10;78.20;;;;;;10398724;28;20260;-79
2021/06/10 13:42:35;;;;;;;10.80;9.90;;;26.90;75.70;;;;;;10400125;28;20260;-79
2021/06/10 13:47:37;;;;;;;10.20;9.27;;;26.80;75.90;;;;;;10385375;28;20202;-78
2021/06/10 13:52:38;;;;;;;11.20;10.40;;;26.60;75.20;;;;;;10401824;28;20229;-79
2021/06/10 13:57:41;;;;;;;9.73;9.03;;;26.40;78.00;;;;;;10384418;28;20205;-78
2021/06/10 14:02:43;;;;;;;7.80;7.30;;;26.20;72.30;;;;;;10403141;28;20709;-78
2021/06/10 14:07:44;;;;;;;10.27;9.40;;;26.10;74.10;;;;;;10403054;28;20198;-78
2021/06/10 14:12:49;;;;;;;8.80;8.10;;;26.00;78.00;;;;;;10403223;28;20262;-78
2021/06/10 14:17:57;;;;;;;6.23;5.73;;;25.80;75.80;;;;;;10404462;28;20211;-78
2021/06/10 14:23:02;;;;;;;6.43;6.03;;;25.60;69.00;;;;;;10365541;28;20228;-78
2021/06/10 14:28:06;;;;;;;7.60;7.10;;;25.50;75.60;;;;;;10384615;28;20221;-78
2021/06/10 14:33:08;;;;;;;8.03;7.50;;;25.30;78.50;;;;;;10384618;28;20253;-78
2021/06/10 14:38:10;;;;;;;8.37;7.67;;;25.10;80.90;;;;;;10397827;28;20257;-78
2021/06/10 14:43:14;;;;;;;9.00;8.30;;;25.00;79.90;;;;;;10417307;28;20249;-78
2021/06/10 14:48:16;;;;;;;8.73;8.10;;;24.90;81.30;;;;;;10416052;28;20237;-78
2021/06/10 14:53:18;;;;;;;8.70;7.90;;;24.80;82.50;;;;;;10417063;28;20727;-78
2021/06/10 14:58:21;;;;;;;9.07;8.27;;;24.80;82.00;;;;;;10395611;28;20700;-79
2021/06/10 15:03:23;;;;;;;12.20;11.20;;;24.70;87.50;;;;;;10369336;28;20737;-79
2021/06/10 15:08:25;;;;;;;14.60;13.50;;;24.80;87.30;;;;;;10414652;28;20336;-78
2021/06/10 15:13:28;;;;;;;12.70;11.80;;;25.00;87.80;;;;;;10414890;28;20225;-79
2021/06/10 15:18:29;;;;;;;12.07;11.17;;;25.10;88.00;;;;;;10415895;28;20241;-78
2021/06/10 15:23:31;;;;;;;11.87;10.83;;;25.30;86.40;;;;;;10409945;28;20203;-79
2021/06/10 15:28:34;;;;;;;11.10;10.40;;;25.40;89.20;;;;;;10397158;28;20281;-79
2021/06/10 15:33:36;;;;;;;12.37;11.33;;;25.40;87.80;;;;;;10409434;28;20280;-79
2021/06/10 15:38:39;;;;;;;8.90;8.20;;;25.40;87.00;;;;;;10414856;28;20848;-79
2021/06/10 15:43:43;;;;;;;6.23;5.83;;;25.50;85.30;;;;;;10416332;28;20201;-79
2021/06/10 15:48:45;;;;;;;6.70;6.20;;;25.30;81.60;;;;;;10414017;28;20200;-79
2021/06/10 15:53:46;;;;;;;7.07;6.57;;;25.10;79.70;;;;;;10381980;28;20285;-78
2021/06/10 15:58:49;;;;;;;6.67;6.17;;;24.90;82.30;;;;;;10405402;28;20649;-78
2021/06/10 16:03:51;;;;;;;6.57;6.07;;;24.80;85.50;;;;;;10413618;28;20702;-79
2021/06/10 16:08:52;;;;;;;5.87;5.47;;;24.80;82.10;;;;;;10409254;28;21472;-79
2021/06/10 16:13:55;;;;;;;6.07;5.67;;;24.80;82.50;;;;;;10394402;28;20199;-80
2021/06/10 16:18:57;;;;;;;6.93;6.47;;;24.80;88.80;;;;;;10405546;28;20237;-79
2021/06/10 16:23:59;;;;;;;5.73;5.33;;;24.80;84.60;;;;;;10402893;28;20221;-80
2021/06/10 16:29:02;;;;;;;5.40;5.00;;;24.80;83.30;;;;;;10419747;28;20218;-78
2021/06/10 16:34:04;;;;;;;7.03;6.50;;;24.70;83.90;;;;;;10399811;28;20218;-79
2021/06/10 16:39:06;;;;;;;6.73;6.23;;;24.50;84.20;;;;;;10376797;28;20346;-79
2021/06/10 16:44:09;;;;;;;6.83;6.33;;;24.30;86.60;;;;;;10403614;28;20202;-79
2021/06/10 16:49:11;;;;;;;7.63;7.03;;;24.30;88.30;;;;;;10422459;28;20230;-80
2021/06/10 16:54:13;;;;;;;7.03;6.53;;;24.30;83.30;;;;;;10419868;28;20206;-79
2021/06/10 16:59:17;;;;;;;7.60;7.00;;;24.20;82.00;;;;;;10402172;28;20226;-80
2021/06/10 17:04:21;;;;;;;6.90;6.30;;;24.20;83.20;;;;;;10420833;28;20259;-80
2021/06/10 17:09:24;;;;;;;6.97;6.50;;;24.00;87.10;;;;;;10419841;28;20211;-80
2021/06/10 17:14:29;;;;;;;7.70;7.10;;;23.90;91.00;;;;;;10403880;28;20205;-80
2021/06/10 17:19:31;;;;;;;8.10;7.53;;;23.80;92.60;;;;;;10411744;28;20573;-79
2021/06/10 17:24:32;;;;;;;8.00;7.30;;;23.70;94.60;;;;;;10416945;28;20194;-79
2021/06/10 17:29:35;;;;;;;9.83;8.93;;;23.50;95.50;;;;;;10394023;28;20260;-80
2021/06/10 17:34:37;;;;;;;8.73;8.13;;;23.40;98.10;;;;;;10417402;28;20214;-80
2021/06/10 17:39:39;;;;;;;9.23;8.40;;;23.30;99.90;;;;;;10392953;28;20229;-80
2021/06/10 17:44:42;;;;;;;10.90;10.00;;;23.20;99.90;;;;;;10400208;28;20288;-79
2021/06/10 17:49:44;;;;;;;10.90;9.97;;;23.10;99.90;;;;;;10404040;28;20292;-80
2021/06/10 17:54:45;;;;;;;8.87;8.17;;;23.00;99.90;;;;;;10416802;28;20193;-80
2021/06/10 17:59:48;;;;;;;10.30;9.50;;;22.90;99.90;;;;;;10392177;28;20348;-78
2021/06/10 18:04:50;;;;;;;10.57;9.77;;;22.80;99.90;;;;;;10416451;28;20292;-80
2021/06/10 18:09:51;;;;;;;11.40;10.60;;;22.80;99.90;;;;;;10412794;28;20248;-80
2021/06/10 18:14:54;;;;;;;12.57;11.17;;;22.80;99.90;;;;;;10398532;28;20217;-79
2021/06/10 18:19:56;;;;;;;10.90;10.00;;;22.80;99.90;;;;;;10400229;28;20372;-80
2021/06/10 18:24:58;;;;;;;9.80;9.10;;;22.70;99.90;;;;;;10399638;28;20201;-79
2021/06/10 18:30:01;;;;;;;8.97;8.27;;;22.60;99.90;;;;;;10414306;28;20214;-80
2021/06/10 18:35:04;;;;;;;9.93;9.13;;;22.60;99.90;;;;;;10399122;28;20440;-79
2021/06/10 18:40:07;;;;;;;9.47;8.67;;;22.50;99.90;;;;;;10402141;28;20228;-79
2021/06/10 18:45:11;;;;;;;10.00;9.20;;;22.40;99.90;;;;;;10402318;28;20264;-79
2021/06/10 18:50:15;;;;;;;10.10;9.17;;;22.40;99.90;;;;;;10416120;28;20287;-80
2021/06/10 18:55:19;;;;;;;9.07;8.40;;;22.30;99.90;;;;;;10398982;28;20213;-80
2021/06/10 19:00:22;;;;;;;8.67;8.03;;;22.20;99.90;;;;;;10415754;28;20640;-80
2021/06/10 19:05:24;;;;;;;9.00;8.40;;;22.20;99.90;;;;;;10410189;28;20197;-79
2021/06/10 19:10:28;;;;;;;9.10;8.50;;;22.10;99.90;;;;;;10414627;28;20740;-79
2021/06/10 19:15:32;;;;;;;9.13;8.43;;;22.10;99.90;;;;;;10398117;28;20207;-80
2021/06/10 19:20:33;;;;;;;9.27;8.50;;;22.10;99.90;;;;;;10398500;28;20234;-80
2021/06/10 19:25:35;;;;;;;9.80;8.97;;;22.00;99.90;;;;;;10398224;28;20229;-79
2021/06/10 19:30:44;;;;;;;10.20;9.33;;;22.00;99.90;;;;;;10397598;28;20233;-79
2021/06/10 19:35:46;;;;;;;12.00;10.20;;;21.90;99.90;;;;;;10413831;28;20202;-79
2021/06/10 19:40:48;;;;;;;10.40;9.50;;;21.80;99.90;;;;;;10398464;28;20597;-79
2021/06/10 19:45:51;;;;;;;9.90;9.20;;;21.70;99.90;;;;;;10395815;28;20210;-79
2021/06/10 19:50:55;;;;;;;9.10;8.40;;;21.50;99.90;;;;;;10383233;28;20311;-79
2021/06/10 19:55:58;;;;;;;9.70;9.00;;;21.40;99.90;;;;;;10386975;28;20221;-78
2021/06/10 20:01:02;;;;;;;10.77;9.97;;;21.20;99.90;;;;;;10377824;28;20225;-80
2021/06/10 20:06:09;;;;;;;9.77;9.07;;;21.00;99.90;;;;;;10384294;28;20828;-78
2021/06/10 20:11:11;;;;;;;9.83;9.13;;;20.90;99.90;;;;;;10406341;28;20225;-79
2021/06/10 20:16:14;;;;;;;10.00;9.10;;;20.80;99.90;;;;;;10393912;28;20225;-79
2021/06/10 20:21:17;;;;;;;11.10;9.30;;;20.80;99.90;;;;;;10418706;28;20222;-79
2021/06/10 20:26:20;;;;;;;9.20;8.50;;;20.60;99.90;;;;;;10404660;28;20587;-79
2021/06/10 20:31:23;;;;;;;10.40;9.50;;;20.50;99.90;;;;;;10387547;28;20211;-80
2021/06/10 20:36:25;;;;;;;9.50;8.80;;;20.40;99.90;;;;;;10386379;28;20203;-80
2021/06/10 20:41:27;;;;;;;9.63;8.90;;;20.40;99.90;;;;;;10374065;28;20226;-79
2021/06/10 20:46:30;;;;;;;9.93;9.13;;;20.30;99.90;;;;;;10401925;28;20198;-79
2021/06/10 20:51:32;;;;;;;10.37;9.57;;;20.20;99.90;;;;;;10413830;28;20226;-79
2021/06/10 20:56:35;;;;;;;9.70;8.90;;;20.10;99.90;;;;;;10381220;28;20672;-80
2021/06/10 21:01:38;;;;;;;9.37;8.67;;;20.10;99.90;;;;;;10387901;28;20225;-79
2021/06/10 21:06:40;;;;;;;9.33;8.63;;;20.00;99.90;;;;;;10418389;28;20201;-79
2021/06/10 21:11:42;;;;;;;9.20;8.47;;;20.00;99.90;;;;;;10406138;28;20222;-78
2021/06/10 21:16:45;;;;;;;11.20;8.97;;;20.00;99.90;;;;;;10399055;28;20228;-79
2021/06/10 21:21:47;;;;;;;9.10;8.40;;;19.90;99.90;;;;;;10399820;28;20308;-79
2021/06/10 21:26:51;;;;;;;9.10;8.40;;;19.90;99.90;;;;;;10399999;28;20269;-79
2021/06/10 21:31:54;;;;;;;9.50;8.80;;;19.90;99.90;;;;;;10415390;28;20224;-78
2021/06/10 21:36:56;;;;;;;10.20;9.30;;;19.90;99.90;;;;;;10402680;28;20677;-79
2021/06/10 21:42:00;;;;;;;10.33;9.53;;;19.90;99.90;;;;;;10413813;28;20301;-79
2021/06/10 21:47:05;;;;;;;9.97;9.27;;;19.90;99.90;;;;;;10413925;28;20579;-79
2021/06/10 21:52:10;;;;;;;10.27;9.47;;;19.90;99.90;;;;;;10402526;28;20728;-79
2021/06/10 21:57:19;;;;;;;10.10;9.30;;;19.90;99.90;;;;;;10405145;28;20198;-78
2021/06/10 22:02:24;;;;;;;10.87;10.03;;;19.80;99.90;;;;;;10386332;28;20661;-79
2021/06/10 22:07:26;;;;;;;11.57;10.70;;;19.80;99.90;;;;;;10392084;28;20256;-80
2021/06/10 22:12:31;;;;;;;11.00;10.03;;;19.80;99.90;;;;;;10405540;28;20210;-79
2021/06/10 22:17:34;;;;;;;11.30;10.40;;;19.80;99.90;;;;;;10373318;28;20233;-79
2021/06/10 22:22:36;;;;;;;13.20;12.03;;;19.80;99.90;;;;;;10380428;28;20225;-78
2021/06/10 22:27:39;;;;;;;12.77;9.67;;;19.70;99.90;;;;;;10373703;28;20269;-79
2021/06/10 22:32:47;;;;;;;10.80;9.90;;;19.70;99.90;;;;;;10380742;28;20214;-80
2021/06/10 22:37:50;;;;;;;11.63;10.63;;;19.70;99.90;;;;;;10376388;28;20197;-80
2021/06/10 22:42:51;;;;;;;11.27;10.37;;;19.60;99.90;;;;;;10399021;28;20269;-79
2021/06/10 22:47:59;;;;;;;11.07;10.20;;;19.50;99.90;;;;;;10401982;28;20258;-79
2021/06/10 22:53:07;;;;;;;11.73;10.77;;;19.50;99.90;;;;;;10390421;28;20229;-79
2021/06/10 22:58:11;;;;;;;14.83;10.80;;;19.40;99.90;;;;;;10386659;28;20348;-79
2021/06/10 23:03:14;;;;;;;10.63;9.80;;;19.30;99.90;;;;;;10397472;28;20305;-79
2021/06/10 23:08:16;;;;;;;10.97;10.10;;;19.30;99.90;;;;;;10380644;28;20201;-80
2021/06/10 23:13:18;;;;;;;12.40;11.40;;;19.20;99.90;;;;;;10377113;28;20241;-79
2021/06/10 23:18:21;;;;;;;11.77;10.67;;;19.20;99.90;;;;;;10404950;28;20201;-79
2021/06/10 23:23:22;;;;;;;11.83;10.83;;;19.20;99.90;;;;;;10398949;28;20697;-79
2021/06/10 23:28:24;;;;;;;11.90;11.00;;;19.10;99.90;;;;;;10407568;28;20293;-79
2021/06/10 23:33:27;;;;;;;13.13;12.13;;;19.00;99.90;;;;;;10395104;28;20248;-80
2021/06/10 23:38:32;;;;;;;16.27;14.73;;;19.00;99.90;;;;;;10380859;28;20597;-78
2021/06/10 23:43:33;;;;;;;12.87;11.77;;;18.90;99.90;;;;;;10384802;28;20222;-78
2021/06/10 23:48:36;;;;;;;12.20;11.17;;;18.80;99.90;;;;;;10402645;28;20205;-80
2021/06/10 23:53:39;;;;;;;14.80;11.70;;;18.80;99.90;;;;;;10406749;28;20197;-79
2021/06/10 23:58:40;;;;;;;14.17;12.97;;;18.80;99.90;;;;;;10395777;28;20314;-79
